Reepham, United Kingdom
Current Conditions -  °F | °C
As of 7:50 PM on Wednesday 28 Jan 2015 (Local Time) from EGXW Reporting Station
Snow Showers Snow Showers  
Wind Chill: -5°   Ceiling: 1100
Heat Index:   Visibility: 3mi
Dew Point: -1°   Wind: 18mph
Humidity: 87%   Direction: 250°WSW
Pressure: 29.41"   Gusts: NA
Location:  53.23°N, 0.43°W
Report Text: EGXW 281950Z 25016KT 5000 -SHSN BKN011 01/M01 Q0996 GRN
Loading
Personal Weather Stations






























Interactive Weather Map New forecast layout! Learn more

10-Day Weather Forecast

Advertisements
Track Severe Weather on mobile